Terminal Aerodrome Forecast
Issued by NWS

Home | Current Version | Previous Version | Graphics & Text | Print | Product List | Glossary On
Versions: 1 2 3 4 5 6 7 8 9 10 11 12 13 14
000
FTUS43 KTOP 081120
TAFFOE
TAF
KFOE 081120Z 0812/0912 22008KT P6SM SCT100 BKN250
     FM081900 30010KT P6SM BKN040
     FM090200 28008KT P6SM SCT250
     FM090800 32011KT P6SM SCT250=

USA.gov is the U.S. government's official web portal to all federal, state and local government web resources and services.